Terminal Aerodrome Forecast
Issued by NWS Sioux Falls, SD

Home | Current Version | Previous Version | Text Only | Print | Product List | Glossary On
Versions: 1 2 3 4 5 6 7 8 9 10 11 12 13 14 15 16 17 18 19
000
FTUS43 KFSD 052002 AAA
TAFHON
TAF AMD
KHON 052002Z 0520/0618 18008KT P6SM FEW050
     FM060100 13005KT P6SM BKN080
     FM060300 06010KT 4SM TSRA OVC030CB
     FM060700 36015KT 6SM SHRA OVC020
     FM061200 35015KT P6SM BKN030
     FM061600 35018G25KT P6SM SCT040=

USA.gov is the U.S. government's official web portal to all federal, state and local government web resources and services.